sensor_id;sensor_type;location;lat;lon;timestamp;P1;durP1;ratioP1;P2;durP2;ratioP2
18162;SDS011;9206;50.994;4.538;2022-10-16T00:02:36;1.33;;;1.20;;
18162;SDS011;9206;50.994;4.538;2022-10-16T00:05:29;2.00;;;1.20;;
18162;SDS011;9206;50.994;4.538;2022-10-16T00:08:23;1.23;;;1.17;;
18162;SDS011;9206;50.994;4.538;2022-10-16T00:11:19;1.10;;;1.07;;
18162;SDS011;9206;50.994;4.538;2022-10-16T00:14:12;1.20;;;1.20;;
18162;SDS011;9206;50.994;4.538;2022-10-16T00:17:06;1.30;;;1.27;;
18162;SDS011;9206;50.994;4.538;2022-10-16T00:19:59;1.10;;;1.10;;
18162;SDS011;9206;50.994;4.538;2022-10-16T00:22:49;1.63;;;1.20;;
18162;SDS011;9206;50.994;4.538;2022-10-16T00:25:42;5.97;;;1.60;;
18162;SDS011;9206;50.994;4.538;2022-10-16T00:28:37;1.10;;;1.10;;
18162;SDS011;9206;50.994;4.538;2022-10-16T00:31:30;1.10;;;1.10;;
18162;SDS011;9206;50.994;4.538;2022-10-16T00:34:21;1.83;;;1.00;;
18162;SDS011;9206;50.994;4.538;2022-10-16T00:40:05;3.50;;;1.13;;
18162;SDS011;9206;50.994;4.538;2022-10-16T00:42:59;1.00;;;1.00;;
18162;SDS011;9206;50.994;4.538;2022-10-16T00:45:48;1.03;;;1.03;;
18162;SDS011;9206;50.994;4.538;2022-10-16T00:48:43;1.77;;;1.03;;
18162;SDS011;9206;50.994;4.538;2022-10-16T00:51:42;0.90;;;0.90;;
18162;SDS011;9206;50.994;4.538;2022-10-16T00:54:32;1.00;;;0.97;;
18162;SDS011;9206;50.994;4.538;2022-10-16T00:57:20;1.30;;;1.20;;
18162;SDS011;9206;50.994;4.538;2022-10-16T01:00:15;1.57;;;0.90;;
18162;SDS011;9206;50.994;4.538;2022-10-16T01:03:24;1.27;;;1.07;;
18162;SDS011;9206;50.994;4.538;2022-10-16T01:06:19;1.00;;;1.00;;
18162;SDS011;9206;50.994;4.538;2022-10-16T01:09:14;1.20;;;1.10;;
18162;SDS011;9206;50.994;4.538;2022-10-16T01:12:09;1.03;;;1.03;;
18162;SDS011;9206;50.994;4.538;2022-10-16T01:15:05;1.33;;;1.10;;
18162;SDS011;9206;50.994;4.538;2022-10-16T01:17:57;0.90;;;0.90;;
18162;SDS011;9206;50.994;4.538;2022-10-16T01:20:56;1.10;;;1.10;;
18162;SDS011;9206;50.994;4.538;2022-10-16T01:23:51;3.07;;;0.80;;
18162;SDS011;9206;50.994;4.538;2022-10-16T01:27:01;2.60;;;1.17;;
18162;SDS011;9206;50.994;4.538;2022-10-16T01:30:02;1.10;;;1.10;;
18162;SDS011;9206;50.994;4.538;2022-10-16T01:33:02;1.00;;;1.00;;
18162;SDS011;9206;50.994;4.538;2022-10-16T01:35:59;2.90;;;1.20;;
18162;SDS011;9206;50.994;4.538;2022-10-16T01:38:56;1.90;;;0.90;;
18162;SDS011;9206;50.994;4.538;2022-10-16T01:41:48;1.10;;;1.10;;
18162;SDS011;9206;50.994;4.538;2022-10-16T01:44:41;1.20;;;1.00;;
18162;SDS011;9206;50.994;4.538;2022-10-16T01:47:30;1.23;;;1.23;;
18162;SDS011;9206;50.994;4.538;2022-10-16T01:53:14;0.90;;;0.90;;
18162;SDS011;9206;50.994;4.538;2022-10-16T01:56:04;2.70;;;1.50;;
18162;SDS011;9206;50.994;4.538;2022-10-16T01:58:55;1.27;;;1.17;;
18162;SDS011;9206;50.994;4.538;2022-10-16T02:01:49;2.80;;;1.20;;
18162;SDS011;9206;50.994;4.538;2022-10-16T02:04:42;1.53;;;1.07;;
18162;SDS011;9206;50.994;4.538;2022-10-16T02:07:32;1.33;;;1.23;;
18162;SDS011;9206;50.994;4.538;2022-10-16T02:10:19;1.87;;;1.30;;
18162;SDS011;9206;50.994;4.538;2022-10-16T02:13:13;1.10;;;1.10;;
18162;SDS011;9206;50.994;4.538;2022-10-16T02:16:04;1.33;;;1.23;;
18162;SDS011;9206;50.994;4.538;2022-10-16T02:18:54;1.40;;;1.30;;
18162;SDS011;9206;50.994;4.538;2022-10-16T02:21:43;1.57;;;1.47;;
18162;SDS011;9206;50.994;4.538;2022-10-16T02:24:34;2.07;;;1.30;;
18162;SDS011;9206;50.994;4.538;2022-10-16T02:27:26;1.40;;;1.30;;
18162;SDS011;9206;50.994;4.538;2022-10-16T02:30:25;1.87;;;1.00;;
18162;SDS011;9206;50.994;4.538;2022-10-16T02:33:21;3.63;;;1.50;;
18162;SDS011;9206;50.994;4.538;2022-10-16T02:36:11;1.17;;;1.17;;
18162;SDS011;9206;50.994;4.538;2022-10-16T02:38:59;1.87;;;1.20;;
18162;SDS011;9206;50.994;4.538;2022-10-16T02:41:51;1.57;;;1.47;;
18162;SDS011;9206;50.994;4.538;2022-10-16T02:44:42;1.00;;;1.00;;
18162;SDS011;9206;50.994;4.538;2022-10-16T02:47:36;1.30;;;1.20;;
18162;SDS011;9206;50.994;4.538;2022-10-16T02:50:26;1.23;;;1.23;;
18162;SDS011;9206;50.994;4.538;2022-10-16T02:53:16;3.30;;;1.53;;
18162;SDS011;9206;50.994;4.538;2022-10-16T02:56:10;2.70;;;1.60;;
18162;SDS011;9206;50.994;4.538;2022-10-16T02:58:57;2.77;;;1.20;;
18162;SDS011;9206;50.994;4.538;2022-10-16T03:01:50;1.23;;;1.13;;
18162;SDS011;9206;50.994;4.538;2022-10-16T03:04:44;1.67;;;1.57;;
18162;SDS011;9206;50.994;4.538;2022-10-16T03:10:39;1.90;;;1.60;;
18162;SDS011;9206;50.994;4.538;2022-10-16T03:13:32;1.40;;;1.30;;
18162;SDS011;9206;50.994;4.538;2022-10-16T03:16:26;1.47;;;1.37;;
18162;SDS011;9206;50.994;4.538;2022-10-16T03:19:16;3.47;;;1.37;;
18162;SDS011;9206;50.994;4.538;2022-10-16T03:22:10;1.47;;;1.37;;
18162;SDS011;9206;50.994;4.538;2022-10-16T03:24:59;3.67;;;1.23;;
18162;SDS011;9206;50.994;4.538;2022-10-16T03:27:49;3.70;;;1.20;;
18162;SDS011;9206;50.994;4.538;2022-10-16T03:30:42;1.60;;;1.50;;
18162;SDS011;9206;50.994;4.538;2022-10-16T03:33:36;1.27;;;1.23;;
18162;SDS011;9206;50.994;4.538;2022-10-16T03:36:23;1.40;;;1.30;;
18162;SDS011;9206;50.994;4.538;2022-10-16T03:39:11;3.70;;;1.70;;
18162;SDS011;9206;50.994;4.538;2022-10-16T03:42:02;8.03;;;1.40;;
18162;SDS011;9206;50.994;4.538;2022-10-16T03:48:02;2.20;;;1.37;;
18162;SDS011;9206;50.994;4.538;2022-10-16T03:50:50;1.70;;;1.60;;
18162;SDS011;9206;50.994;4.538;2022-10-16T03:53:41;1.67;;;1.57;;
18162;SDS011;9206;50.994;4.538;2022-10-16T03:56:29;1.67;;;1.40;;
18162;SDS011;9206;50.994;4.538;2022-10-16T03:59:17;1.23;;;1.23;;
18162;SDS011;9206;50.994;4.538;2022-10-16T04:02:07;1.53;;;1.10;;
18162;SDS011;9206;50.994;4.538;2022-10-16T04:04:57;3.77;;;1.50;;
18162;SDS011;9206;50.994;4.538;2022-10-16T04:07:45;1.83;;;1.47;;
18162;SDS011;9206;50.994;4.538;2022-10-16T04:10:42;2.60;;;1.80;;
18162;SDS011;9206;50.994;4.538;2022-10-16T04:13:30;3.50;;;1.50;;
18162;SDS011;9206;50.994;4.538;2022-10-16T04:16:19;2.23;;;1.50;;
18162;SDS011;9206;50.994;4.538;2022-10-16T04:19:10;2.30;;;1.40;;
18162;SDS011;9206;50.994;4.538;2022-10-16T04:24:58;1.43;;;1.37;;
18162;SDS011;9206;50.994;4.538;2022-10-16T04:27:52;1.73;;;1.63;;
18162;SDS011;9206;50.994;4.538;2022-10-16T04:30:45;3.07;;;1.70;;
18162;SDS011;9206;50.994;4.538;2022-10-16T04:33:34;1.60;;;1.50;;
18162;SDS011;9206;50.994;4.538;2022-10-16T04:36:24;3.30;;;1.50;;
18162;SDS011;9206;50.994;4.538;2022-10-16T04:39:15;3.50;;;1.73;;
18162;SDS011;9206;50.994;4.538;2022-10-16T04:42:04;1.60;;;1.50;;
18162;SDS011;9206;50.994;4.538;2022-10-16T04:44:57;1.97;;;1.60;;
18162;SDS011;9206;50.994;4.538;2022-10-16T04:47:45;1.47;;;1.37;;
18162;SDS011;9206;50.994;4.538;2022-10-16T04:50:38;1.57;;;1.47;;
18162;SDS011;9206;50.994;4.538;2022-10-16T04:53:33;1.63;;;1.50;;
18162;SDS011;9206;50.994;4.538;2022-10-16T04:56:22;1.70;;;1.60;;
18162;SDS011;9206;50.994;4.538;2022-10-16T04:59:10;1.90;;;1.60;;
18162;SDS011;9206;50.994;4.538;2022-10-16T05:01:58;1.40;;;1.40;;
18162;SDS011;9206;50.994;4.538;2022-10-16T05:04:48;3.80;;;1.40;;
18162;SDS011;9206;50.994;4.538;2022-10-16T05:07:38;1.40;;;1.40;;
18162;SDS011;9206;50.994;4.538;2022-10-16T05:10:28;2.23;;;1.50;;
18162;SDS011;9206;50.994;4.538;2022-10-16T05:13:21;1.73;;;1.50;;
18162;SDS011;9206;50.994;4.538;2022-10-16T05:16:18;3.20;;;1.43;;
18162;SDS011;9206;50.994;4.538;2022-10-16T05:19:09;2.10;;;1.60;;
18162;SDS011;9206;50.994;4.538;2022-10-16T05:22:08;2.80;;;1.50;;
18162;SDS011;9206;50.994;4.538;2022-10-16T05:24:55;2.60;;;1.50;;
18162;SDS011;9206;50.994;4.538;2022-10-16T05:27:46;1.63;;;1.50;;
18162;SDS011;9206;50.994;4.538;2022-10-16T05:30:36;1.83;;;1.60;;
18162;SDS011;9206;50.994;4.538;2022-10-16T05:33:27;3.37;;;1.60;;
18162;SDS011;9206;50.994;4.538;2022-10-16T05:36:14;5.53;;;1.50;;
18162;SDS011;9206;50.994;4.538;2022-10-16T05:39:05;2.20;;;1.60;;
18162;SDS011;9206;50.994;4.538;2022-10-16T05:41:52;1.83;;;1.73;;
18162;SDS011;9206;50.994;4.538;2022-10-16T05:44:41;1.70;;;1.40;;
18162;SDS011;9206;50.994;4.538;2022-10-16T05:47:29;1.97;;;1.60;;
18162;SDS011;9206;50.994;4.538;2022-10-16T05:50:18;1.60;;;1.50;;
18162;SDS011;9206;50.994;4.538;2022-10-16T05:53:06;3.30;;;1.53;;
18162;SDS011;9206;50.994;4.538;2022-10-16T05:55:56;1.63;;;1.50;;
18162;SDS011;9206;50.994;4.538;2022-10-16T05:58:49;2.70;;;1.60;;
18162;SDS011;9206;50.994;4.538;2022-10-16T06:01:44;5.50;;;2.03;;
18162;SDS011;9206;50.994;4.538;2022-10-16T06:04:33;5.23;;;1.47;;
18162;SDS011;9206;50.994;4.538;2022-10-16T06:07:21;1.90;;;1.77;;
18162;SDS011;9206;50.994;4.538;2022-10-16T06:10:11;1.67;;;1.50;;
18162;SDS011;9206;50.994;4.538;2022-10-16T06:13:00;3.13;;;1.90;;
18162;SDS011;9206;50.994;4.538;2022-10-16T06:15:56;1.60;;;1.50;;
18162;SDS011;9206;50.994;4.538;2022-10-16T06:18:54;2.37;;;1.70;;
18162;SDS011;9206;50.994;4.538;2022-10-16T06:24:35;2.90;;;1.80;;
18162;SDS011;9206;50.994;4.538;2022-10-16T06:27:25;3.60;;;1.87;;
18162;SDS011;9206;50.994;4.538;2022-10-16T06:30:13;2.13;;;1.80;;
18162;SDS011;9206;50.994;4.538;2022-10-16T06:33:01;2.00;;;1.67;;
18162;SDS011;9206;50.994;4.538;2022-10-16T06:36:09;2.10;;;2.00;;
18162;SDS011;9206;50.994;4.538;2022-10-16T06:39:00;2.10;;;1.80;;
18162;SDS011;9206;50.994;4.538;2022-10-16T06:41:48;5.60;;;2.10;;
18162;SDS011;9206;50.994;4.538;2022-10-16T06:44:38;2.77;;;1.83;;
18162;SDS011;9206;50.994;4.538;2022-10-16T06:50:22;2.90;;;2.43;;
18162;SDS011;9206;50.994;4.538;2022-10-16T06:53:12;2.00;;;1.70;;
18162;SDS011;9206;50.994;4.538;2022-10-16T06:56:06;4.27;;;1.60;;
18162;SDS011;9206;50.994;4.538;2022-10-16T06:58:54;1.90;;;1.70;;
18162;SDS011;9206;50.994;4.538;2022-10-16T07:01:45;2.83;;;1.70;;
18162;SDS011;9206;50.994;4.538;2022-10-16T07:04:35;2.33;;;2.03;;
18162;SDS011;9206;50.994;4.538;2022-10-16T07:07:23;7.50;;;2.10;;
18162;SDS011;9206;50.994;4.538;2022-10-16T07:10:43;4.23;;;1.83;;
18162;SDS011;9206;50.994;4.538;2022-10-16T07:13:38;3.63;;;1.70;;
18162;SDS011;9206;50.994;4.538;2022-10-16T07:16:31;3.50;;;1.90;;
18162;SDS011;9206;50.994;4.538;2022-10-16T07:19:39;4.20;;;1.90;;
18162;SDS011;9206;50.994;4.538;2022-10-16T07:22:46;2.20;;;2.00;;
18162;SDS011;9206;50.994;4.538;2022-10-16T07:29:57;2.20;;;2.00;;
18162;SDS011;9206;50.994;4.538;2022-10-16T07:35:47;3.00;;;1.87;;
18162;SDS011;9206;50.994;4.538;2022-10-16T07:38:44;2.17;;;1.90;;
18162;SDS011;9206;50.994;4.538;2022-10-16T07:41:38;1.80;;;1.70;;
18162;SDS011;9206;50.994;4.538;2022-10-16T07:44:26;3.37;;;2.13;;
18162;SDS011;9206;50.994;4.538;2022-10-16T07:47:21;1.83;;;1.73;;
18162;SDS011;9206;50.994;4.538;2022-10-16T07:53:05;3.43;;;2.20;;
18162;SDS011;9206;50.994;4.538;2022-10-16T07:55:57;2.33;;;1.70;;
18162;SDS011;9206;50.994;4.538;2022-10-16T07:58:51;6.03;;;2.33;;
18162;SDS011;9206;50.994;4.538;2022-10-16T08:01:44;2.70;;;1.60;;
18162;SDS011;9206;50.994;4.538;2022-10-16T08:04:39;6.43;;;3.13;;
18162;SDS011;9206;50.994;4.538;2022-10-16T08:07:32;2.17;;;1.97;;
18162;SDS011;9206;50.994;4.538;2022-10-16T08:10:26;2.43;;;1.70;;
18162;SDS011;9206;50.994;4.538;2022-10-16T08:13:22;4.17;;;1.90;;
18162;SDS011;9206;50.994;4.538;2022-10-16T08:16:16;6.90;;;2.07;;
18162;SDS011;9206;50.994;4.538;2022-10-16T08:19:03;2.22;;;1.48;;
18162;SDS011;9206;50.994;4.538;2022-10-16T08:21:58;2.33;;;1.73;;
18162;SDS011;9206;50.994;4.538;2022-10-16T08:24:48;3.30;;;1.70;;
18162;SDS011;9206;50.994;4.538;2022-10-16T08:27:36;1.33;;;1.20;;
18162;SDS011;9206;50.994;4.538;2022-10-16T08:30:27;2.45;;;1.50;;
18162;SDS011;9206;50.994;4.538;2022-10-16T08:33:14;1.90;;;1.20;;
18162;SDS011;9206;50.994;4.538;2022-10-16T08:36:04;2.08;;;1.30;;
18162;SDS011;9206;50.994;4.538;2022-10-16T08:38:56;4.45;;;1.00;;
18162;SDS011;9206;50.994;4.538;2022-10-16T08:42:00;1.40;;;1.30;;
18162;SDS011;9206;50.994;4.538;2022-10-16T08:45:11;1.70;;;1.40;;
18162;SDS011;9206;50.994;4.538;2022-10-16T08:48:54;4.50;;;1.45;;
18162;SDS011;9206;50.994;4.538;2022-10-16T08:55:19;3.35;;;1.48;;
18162;SDS011;9206;50.994;4.538;2022-10-16T08:58:18;4.07;;;1.30;;
18162;SDS011;9206;50.994;4.538;2022-10-16T09:01:11;1.65;;;1.08;;
18162;SDS011;9206;50.994;4.538;2022-10-16T09:04:20;2.28;;;1.27;;
18162;SDS011;9206;50.994;4.538;2022-10-16T09:07:44;2.50;;;1.08;;
18162;SDS011;9206;50.994;4.538;2022-10-16T09:10:46;2.45;;;1.38;;
18162;SDS011;9206;50.994;4.538;2022-10-16T09:13:47;3.15;;;1.40;;
18162;SDS011;9206;50.994;4.538;2022-10-16T09:16:41;2.92;;;1.50;;
18162;SDS011;9206;50.994;4.538;2022-10-16T09:19:34;1.90;;;1.20;;
18162;SDS011;9206;50.994;4.538;2022-10-16T09:25:20;3.92;;;1.50;;
18162;SDS011;9206;50.994;4.538;2022-10-16T09:31:07;3.10;;;1.20;;
18162;SDS011;9206;50.994;4.538;2022-10-16T09:34:10;2.78;;;1.50;;
18162;SDS011;9206;50.994;4.538;2022-10-16T09:37:12;3.53;;;1.30;;
18162;SDS011;9206;50.994;4.538;2022-10-16T09:40:04;1.95;;;1.40;;
18162;SDS011;9206;50.994;4.538;2022-10-16T09:42:57;1.95;;;1.00;;
18162;SDS011;9206;50.994;4.538;2022-10-16T09:45:57;2.33;;;1.00;;
18162;SDS011;9206;50.994;4.538;2022-10-16T09:54:33;1.80;;;1.33;;
18162;SDS011;9206;50.994;4.538;2022-10-16T09:57:27;3.33;;;1.00;;
18162;SDS011;9206;50.994;4.538;2022-10-16T10:00:27;3.63;;;1.30;;
18162;SDS011;9206;50.994;4.538;2022-10-16T10:03:37;2.20;;;1.25;;
18162;SDS011;9206;50.994;4.538;2022-10-16T10:06:28;2.63;;;1.33;;
18162;SDS011;9206;50.994;4.538;2022-10-16T10:09:25;1.58;;;1.30;;
18162;SDS011;9206;50.994;4.538;2022-10-16T10:12:20;2.67;;;1.02;;
18162;SDS011;9206;50.994;4.538;2022-10-16T10:15:13;1.67;;;1.48;;
18162;SDS011;9206;50.994;4.538;2022-10-16T10:18:15;2.47;;;1.20;;
18162;SDS011;9206;50.994;4.538;2022-10-16T10:21:12;2.60;;;1.25;;
18162;SDS011;9206;50.994;4.538;2022-10-16T10:24:04;2.38;;;1.30;;
18162;SDS011;9206;50.994;4.538;2022-10-16T10:26:57;3.72;;;1.30;;
18162;SDS011;9206;50.994;4.538;2022-10-16T10:29:57;3.35;;;1.23;;
18162;SDS011;9206;50.994;4.538;2022-10-16T10:32:53;2.85;;;1.20;;
18162;SDS011;9206;50.994;4.538;2022-10-16T10:35:55;1.40;;;0.90;;
18162;SDS011;9206;50.994;4.538;2022-10-16T10:38:56;3.65;;;1.45;;
18162;SDS011;9206;50.994;4.538;2022-10-16T10:42:01;3.97;;;1.10;;
18162;SDS011;9206;50.994;4.538;2022-10-16T10:45:16;1.63;;;0.93;;
18162;SDS011;9206;50.994;4.538;2022-10-16T10:48:24;2.28;;;1.00;;
18162;SDS011;9206;50.994;4.538;2022-10-16T10:51:31;1.23;;;0.88;;
18162;SDS011;9206;50.994;4.538;2022-10-16T10:54:33;3.05;;;1.13;;
18162;SDS011;9206;50.994;4.538;2022-10-16T10:57:29;1.75;;;1.13;;
18162;SDS011;9206;50.994;4.538;2022-10-16T11:00:34;1.52;;;0.88;;
18162;SDS011;9206;50.994;4.538;2022-10-16T11:03:37;1.15;;;1.05;;
18162;SDS011;9206;50.994;4.538;2022-10-16T11:06:34;4.60;;;1.23;;
18162;SDS011;9206;50.994;4.538;2022-10-16T11:09:33;2.15;;;1.17;;
18162;SDS011;9206;50.994;4.538;2022-10-16T11:12:34;1.17;;;0.93;;
18162;SDS011;9206;50.994;4.538;2022-10-16T11:15:33;3.80;;;1.20;;
18162;SDS011;9206;50.994;4.538;2022-10-16T11:18:40;3.22;;;1.10;;
18162;SDS011;9206;50.994;4.538;2022-10-16T11:21:55;3.88;;;1.23;;
18162;SDS011;9206;50.994;4.538;2022-10-16T11:24:59;2.40;;;1.13;;
18162;SDS011;9206;50.994;4.538;2022-10-16T11:28:07;3.70;;;1.45;;
18162;SDS011;9206;50.994;4.538;2022-10-16T11:31:03;1.83;;;0.90;;
18162;SDS011;9206;50.994;4.538;2022-10-16T11:33:58;2.20;;;1.25;;
18162;SDS011;9206;50.994;4.538;2022-10-16T11:36:55;2.47;;;1.05;;
18162;SDS011;9206;50.994;4.538;2022-10-16T11:39:45;2.80;;;1.13;;
18162;SDS011;9206;50.994;4.538;2022-10-16T11:42:36;1.23;;;0.93;;
18162;SDS011;9206;50.994;4.538;2022-10-16T11:45:32;3.35;;;0.90;;
18162;SDS011;9206;50.994;4.538;2022-10-16T11:48:26;1.40;;;0.90;;
18162;SDS011;9206;50.994;4.538;2022-10-16T11:51:20;2.88;;;0.80;;
18162;SDS011;9206;50.994;4.538;2022-10-16T11:54:16;2.58;;;1.13;;
18162;SDS011;9206;50.994;4.538;2022-10-16T11:57:11;2.75;;;1.02;;
18162;SDS011;9206;50.994;4.538;2022-10-16T12:00:05;3.85;;;1.35;;
18162;SDS011;9206;50.994;4.538;2022-10-16T12:03:10;1.88;;;0.90;;
18162;SDS011;9206;50.994;4.538;2022-10-16T12:06:10;4.20;;;1.10;;
18162;SDS011;9206;50.994;4.538;2022-10-16T12:09:09;3.15;;;1.10;;
18162;SDS011;9206;50.994;4.538;2022-10-16T12:12:02;1.17;;;1.00;;
18162;SDS011;9206;50.994;4.538;2022-10-16T12:14:59;2.80;;;0.90;;
18162;SDS011;9206;50.994;4.538;2022-10-16T12:17:55;2.50;;;1.00;;
18162;SDS011;9206;50.994;4.538;2022-10-16T12:20:42;1.48;;;1.20;;
18162;SDS011;9206;50.994;4.538;2022-10-16T12:23:48;1.00;;;0.90;;
18162;SDS011;9206;50.994;4.538;2022-10-16T12:26:38;1.67;;;0.98;;
18162;SDS011;9206;50.994;4.538;2022-10-16T12:29:33;2.45;;;1.08;;
18162;SDS011;9206;50.994;4.538;2022-10-16T12:32:27;1.58;;;0.88;;
18162;SDS011;9206;50.994;4.538;2022-10-16T12:35:20;2.47;;;0.90;;
18162;SDS011;9206;50.994;4.538;2022-10-16T12:38:20;2.03;;;0.95;;
18162;SDS011;9206;50.994;4.538;2022-10-16T12:41:24;4.20;;;1.67;;
18162;SDS011;9206;50.994;4.538;2022-10-16T12:44:20;1.75;;;1.05;;
18162;SDS011;9206;50.994;4.538;2022-10-16T12:47:18;1.08;;;1.00;;
18162;SDS011;9206;50.994;4.538;2022-10-16T12:53:18;1.10;;;1.00;;
18162;SDS011;9206;50.994;4.538;2022-10-16T12:56:09;5.15;;;2.63;;
18162;SDS011;9206;50.994;4.538;2022-10-16T12:59:06;3.65;;;2.50;;
18162;SDS011;9206;50.994;4.538;2022-10-16T13:02:08;2.30;;;1.73;;
18162;SDS011;9206;50.994;4.538;2022-10-16T13:05:22;1.30;;;1.00;;
18162;SDS011;9206;50.994;4.538;2022-10-16T13:08:38;4.10;;;1.80;;
18162;SDS011;9206;50.994;4.538;2022-10-16T13:11:47;1.20;;;1.20;;
18162;SDS011;9206;50.994;4.538;2022-10-16T13:14:56;3.03;;;1.50;;
18162;SDS011;9206;50.994;4.538;2022-10-16T13:18:10;3.55;;;0.85;;
18162;SDS011;9206;50.994;4.538;2022-10-16T13:21:05;2.15;;;1.25;;
18162;SDS011;9206;50.994;4.538;2022-10-16T13:24:07;4.20;;;1.35;;
18162;SDS011;9206;50.994;4.538;2022-10-16T13:27:05;2.55;;;1.00;;
18162;SDS011;9206;50.994;4.538;2022-10-16T13:30:00;3.15;;;1.08;;
18162;SDS011;9206;50.994;4.538;2022-10-16T13:33:01;1.08;;;0.80;;
18162;SDS011;9206;50.994;4.538;2022-10-16T13:35:54;1.52;;;1.42;;
18162;SDS011;9206;50.994;4.538;2022-10-16T13:38:49;1.45;;;1.30;;
18162;SDS011;9206;50.994;4.538;2022-10-16T13:42:05;2.28;;;1.55;;
18162;SDS011;9206;50.994;4.538;2022-10-16T13:44:59;1.40;;;1.30;;
18162;SDS011;9206;50.994;4.538;2022-10-16T13:47:48;0.85;;;0.80;;
18162;SDS011;9206;50.994;4.538;2022-10-16T13:50:36;1.50;;;1.40;;
18162;SDS011;9206;50.994;4.538;2022-10-16T13:53:25;0.93;;;0.80;;
18162;SDS011;9206;50.994;4.538;2022-10-16T13:56:15;0.88;;;0.75;;
18162;SDS011;9206;50.994;4.538;2022-10-16T14:02:18;3.38;;;0.98;;
18162;SDS011;9206;50.994;4.538;2022-10-16T14:05:10;2.75;;;0.90;;
18162;SDS011;9206;50.994;4.538;2022-10-16T14:08:00;1.42;;;0.90;;
18162;SDS011;9206;50.994;4.538;2022-10-16T14:10:48;1.23;;;0.88;;
18162;SDS011;9206;50.994;4.538;2022-10-16T14:13:43;0.65;;;0.65;;
18162;SDS011;9206;50.994;4.538;2022-10-16T14:16:33;2.08;;;1.10;;
18162;SDS011;9206;50.994;4.538;2022-10-16T14:19:24;1.67;;;1.05;;
18162;SDS011;9206;50.994;4.538;2022-10-16T14:22:28;1.85;;;1.70;;
18162;SDS011;9206;50.994;4.538;2022-10-16T14:25:23;1.10;;;0.73;;
18162;SDS011;9206;50.994;4.538;2022-10-16T14:28:15;1.20;;;1.10;;
18162;SDS011;9206;50.994;4.538;2022-10-16T14:31:25;2.00;;;1.02;;
18162;SDS011;9206;50.994;4.538;2022-10-16T14:34:28;5.50;;;1.30;;
18162;SDS011;9206;50.994;4.538;2022-10-16T14:37:22;2.70;;;1.10;;
18162;SDS011;9206;50.994;4.538;2022-10-16T14:40:13;2.35;;;1.15;;
18162;SDS011;9206;50.994;4.538;2022-10-16T14:43:05;3.47;;;1.35;;
18162;SDS011;9206;50.994;4.538;2022-10-16T14:45:55;2.05;;;0.90;;
18162;SDS011;9206;50.994;4.538;2022-10-16T14:48:47;3.45;;;1.10;;
18162;SDS011;9206;50.994;4.538;2022-10-16T14:51:41;3.67;;;1.23;;
18162;SDS011;9206;50.994;4.538;2022-10-16T14:54:42;4.07;;;1.20;;
18162;SDS011;9206;50.994;4.538;2022-10-16T14:57:31;3.65;;;1.00;;
18162;SDS011;9206;50.994;4.538;2022-10-16T15:00:23;2.05;;;1.10;;
18162;SDS011;9206;50.994;4.538;2022-10-16T15:03:13;2.78;;;1.05;;
18162;SDS011;9206;50.994;4.538;2022-10-16T15:06:13;1.40;;;0.75;;
18162;SDS011;9206;50.994;4.538;2022-10-16T15:13:10;3.85;;;1.20;;
18162;SDS011;9206;50.994;4.538;2022-10-16T15:16:11;1.85;;;1.23;;
18162;SDS011;9206;50.994;4.538;2022-10-16T15:19:10;1.40;;;1.15;;
18162;SDS011;9206;50.994;4.538;2022-10-16T15:22:08;1.73;;;1.10;;
18162;SDS011;9206;50.994;4.538;2022-10-16T15:36:00;5.45;;;1.20;;
18162;SDS011;9206;50.994;4.538;2022-10-16T15:42:14;2.42;;;1.20;;
18162;SDS011;9206;50.994;4.538;2022-10-16T15:45:20;2.05;;;1.45;;
18162;SDS011;9206;50.994;4.538;2022-10-16T15:48:10;1.60;;;1.50;;
18162;SDS011;9206;50.994;4.538;2022-10-16T15:51:00;2.85;;;2.20;;
18162;SDS011;9206;50.994;4.538;2022-10-16T15:54:02;4.30;;;2.35;;
18162;SDS011;9206;50.994;4.538;2022-10-16T15:56:51;2.42;;;1.70;;
18162;SDS011;9206;50.994;4.538;2022-10-16T15:59:44;2.72;;;1.80;;
18162;SDS011;9206;50.994;4.538;2022-10-16T16:10:06;5.45;;;1.55;;
18162;SDS011;9206;50.994;4.538;2022-10-16T16:13:10;2.97;;;1.77;;
18162;SDS011;9206;50.994;4.538;2022-10-16T16:19:47;2.88;;;1.65;;
18162;SDS011;9206;50.994;4.538;2022-10-16T16:22:33;2.78;;;2.30;;
18162;SDS011;9206;50.994;4.538;2022-10-16T16:25:27;3.75;;;1.75;;
18162;SDS011;9206;50.994;4.538;2022-10-16T16:28:21;3.85;;;1.73;;
18162;SDS011;9206;50.994;4.538;2022-10-16T16:31:15;4.47;;;2.05;;
18162;SDS011;9206;50.994;4.538;2022-10-16T16:34:38;2.17;;;1.67;;
18162;SDS011;9206;50.994;4.538;2022-10-16T16:37:49;7.43;;;1.73;;
18162;SDS011;9206;50.994;4.538;2022-10-16T16:44:18;3.15;;;2.08;;
18162;SDS011;9206;50.994;4.538;2022-10-16T16:47:07;2.88;;;2.60;;
18162;SDS011;9206;50.994;4.538;2022-10-16T16:50:09;6.32;;;2.28;;
18162;SDS011;9206;50.994;4.538;2022-10-16T16:52:56;2.60;;;2.08;;
18162;SDS011;9206;50.994;4.538;2022-10-16T16:55:52;4.70;;;1.92;;
18162;SDS011;9206;50.994;4.538;2022-10-16T16:59:10;6.72;;;2.20;;
18162;SDS011;9206;50.994;4.538;2022-10-16T17:51:00;5.60;;;3.40;;
18162;SDS011;9206;50.994;4.538;2022-10-16T17:54:12;8.25;;;3.78;;
18162;SDS011;9206;50.994;4.538;2022-10-16T17:57:18;4.28;;;3.88;;
18162;SDS011;9206;50.994;4.538;2022-10-16T18:00:27;4.75;;;4.10;;
18162;SDS011;9206;50.994;4.538;2022-10-16T18:03:28;9.70;;;3.95;;
18162;SDS011;9206;50.994;4.538;2022-10-16T18:06:51;5.28;;;3.78;;
18162;SDS011;9206;50.994;4.538;2022-10-16T18:10:25;4.50;;;3.60;;
18162;SDS011;9206;50.994;4.538;2022-10-16T18:17:42;5.97;;;3.33;;
18162;SDS011;9206;50.994;4.538;2022-10-16T18:39:28;9.80;;;4.23;;
18162;SDS011;9206;50.994;4.538;2022-10-16T18:42:19;8.50;;;4.03;;
18162;SDS011;9206;50.994;4.538;2022-10-16T18:45:13;45.28;;;9.98;;
18162;SDS011;9206;50.994;4.538;2022-10-16T18:48:06;37.10;;;9.75;;
18162;SDS011;9206;50.994;4.538;2022-10-16T18:51:08;16.30;;;5.72;;
18162;SDS011;9206;50.994;4.538;2022-10-16T18:54:08;39.25;;;9.98;;
18162;SDS011;9206;50.994;4.538;2022-10-16T18:57:10;6.43;;;4.85;;
18162;SDS011;9206;50.994;4.538;2022-10-16T19:00:06;7.10;;;5.32;;
18162;SDS011;9206;50.994;4.538;2022-10-16T19:03:05;10.32;;;6.75;;
18162;SDS011;9206;50.994;4.538;2022-10-16T19:06:10;4.63;;;4.25;;
18162;SDS011;9206;50.994;4.538;2022-10-16T19:42:55;4.83;;;4.37;;
18162;SDS011;9206;50.994;4.538;2022-10-16T19:46:17;5.00;;;4.47;;
18162;SDS011;9206;50.994;4.538;2022-10-16T19:49:12;5.03;;;4.40;;
18162;SDS011;9206;50.994;4.538;2022-10-16T19:52:02;4.43;;;4.13;;
18162;SDS011;9206;50.994;4.538;2022-10-16T19:58:36;6.10;;;5.00;;
18162;SDS011;9206;50.994;4.538;2022-10-16T20:05:18;5.63;;;5.00;;
18162;SDS011;9206;50.994;4.538;2022-10-16T20:08:04;5.17;;;4.77;;
18162;SDS011;9206;50.994;4.538;2022-10-16T20:10:53;5.23;;;4.83;;
18162;SDS011;9206;50.994;4.538;2022-10-16T20:13:43;5.87;;;5.37;;
18162;SDS011;9206;50.994;4.538;2022-10-16T20:34:08;5.43;;;5.03;;
18162;SDS011;9206;50.994;4.538;2022-10-16T20:37:25;6.00;;;5.40;;
18162;SDS011;9206;50.994;4.538;2022-10-16T21:02:12;9.40;;;5.77;;
18162;SDS011;9206;50.994;4.538;2022-10-16T21:09:01;5.47;;;5.07;;
18162;SDS011;9206;50.994;4.538;2022-10-16T21:12:16;5.80;;;4.93;;
18162;SDS011;9206;50.994;4.538;2022-10-16T21:18:58;6.23;;;5.33;;
18162;SDS011;9206;50.994;4.538;2022-10-16T21:26:20;11.43;;;5.07;;
18162;SDS011;9206;50.994;4.538;2022-10-16T22:33:54;6.67;;;6.07;;
18162;SDS011;9206;50.994;4.538;2022-10-16T22:43:46;8.17;;;5.93;;
18162;SDS011;9206;50.994;4.538;2022-10-16T22:46:48;8.63;;;5.90;;
18162;SDS011;9206;50.994;4.538;2022-10-16T22:50:57;6.47;;;6.00;;
18162;SDS011;9206;50.994;4.538;2022-10-16T23:05:08;6.97;;;6.37;;
18162;SDS011;9206;50.994;4.538;2022-10-16T23:55:54;7.20;;;6.80;;
